createdAt,value
2023-04-25T00:00:36.162Z,94499.00
2023-04-25T00:01:36.160Z,94495.00
2023-04-25T00:02:36.289Z,94495.00
2023-04-25T00:03:36.335Z,94495.00
2023-04-25T00:04:36.424Z,94493.00
2023-04-25T00:05:36.112Z,94493.00
2023-04-25T00:06:36.103Z,94495.00
2023-04-25T00:07:36.600Z,94495.00
2023-04-25T00:08:36.272Z,94495.00
2023-04-25T00:09:36.087Z,94491.00
2023-04-25T00:10:36.085Z,94493.00
2023-04-25T00:11:36.069Z,94491.00
2023-04-25T00:12:36.071Z,94493.00
2023-04-25T00:13:36.061Z,94493.00
2023-04-25T00:14:36.098Z,94493.00
2023-04-25T00:15:36.063Z,94491.00
2023-04-25T00:16:36.168Z,94491.00
2023-04-25T00:17:36.077Z,94495.00
2023-04-25T00:18:36.048Z,94489.00
2023-04-25T00:19:36.058Z,94491.00
2023-04-25T00:20:36.068Z,94487.00
2023-04-25T00:21:36.020Z,94489.00
2023-04-25T00:22:36.029Z,94489.00
2023-04-25T00:23:36.029Z,94487.00
2023-04-25T00:24:36.045Z,94487.00
2023-04-25T00:25:36.030Z,94486.00
2023-04-25T00:26:35.997Z,94487.00
2023-04-25T00:27:36.028Z,94486.00
2023-04-25T00:28:36.036Z,94486.00
2023-04-25T00:29:36.002Z,94486.00
2023-04-25T00:30:36.040Z,94486.00
2023-04-25T00:31:36.081Z,94489.00
2023-04-25T00:32:36.047Z,94487.00
2023-04-25T00:33:36.016Z,94489.00
2023-04-25T00:34:36.030Z,94487.00
2023-04-25T00:35:36.016Z,94487.00
2023-04-25T00:36:36.029Z,94487.00
2023-04-25T00:37:36.035Z,94486.00
2023-04-25T00:38:36.052Z,94489.00
2023-04-25T00:39:36.027Z,94491.00
2023-04-25T00:40:36.051Z,94493.00
2023-04-25T00:41:36.046Z,94493.00
2023-04-25T00:42:36.036Z,94497.00
2023-04-25T00:43:36.055Z,94493.00
2023-04-25T00:44:36.049Z,94495.00
2023-04-25T00:45:36.081Z,94493.00
2023-04-25T00:46:36.096Z,94491.00
2023-04-25T00:47:36.099Z,94491.00
2023-04-25T00:48:36.081Z,94491.00
2023-04-25T00:49:36.065Z,94491.00
2023-04-25T00:50:36.078Z,94489.00
2023-04-25T00:51:36.091Z,94489.00
2023-04-25T00:52:36.091Z,94491.00
2023-04-25T00:53:36.082Z,94491.00
2023-04-25T00:54:36.100Z,94489.00
2023-04-25T00:55:36.113Z,94487.00
2023-04-25T00:56:36.110Z,94491.00
2023-04-25T00:57:36.140Z,94491.00
2023-04-25T00:58:36.126Z,94489.00
2023-04-25T00:59:36.117Z,94493.00
2023-04-25T01:00:36.183Z,94493.00
2023-04-25T01:01:36.140Z,94495.00
2023-04-25T01:02:36.317Z,94495.00
2023-04-25T01:03:36.266Z,94493.00
2023-04-25T01:04:36.176Z,94497.00
2023-04-25T01:05:36.200Z,94495.00
2023-04-25T01:06:36.183Z,94495.00
2023-04-25T01:07:36.202Z,94493.00
2023-04-25T01:08:36.196Z,94493.00
2023-04-25T01:09:36.195Z,94489.00
2023-04-25T01:10:36.214Z,94487.00
2023-04-25T01:11:36.250Z,94484.00
2023-04-25T01:12:36.272Z,94480.00
2023-04-25T01:13:36.227Z,94480.00
2023-04-25T01:14:36.222Z,94478.00
2023-04-25T01:15:36.260Z,94480.00
2023-04-25T01:16:36.279Z,94476.00
2023-04-25T01:17:36.303Z,94478.00
2023-04-25T01:18:36.264Z,94476.00
2023-04-25T01:19:36.254Z,94476.00
2023-04-25T01:20:36.293Z,94474.00
2023-04-25T01:21:36.288Z,94474.00
2023-04-25T01:22:36.314Z,94474.00
2023-04-25T01:23:36.324Z,94474.00
2023-04-25T01:24:36.360Z,94476.00
2023-04-25T01:25:36.349Z,94474.00
2023-04-25T01:26:36.341Z,94474.00
2023-04-25T01:27:36.386Z,94474.00
2023-04-25T01:28:36.370Z,94470.00
2023-04-25T01:29:36.373Z,94476.00
2023-04-25T01:30:36.405Z,94470.00
2023-04-25T01:31:36.445Z,94472.00
2023-04-25T01:32:36.420Z,94474.00
2023-04-25T01:33:36.458Z,94474.00
2023-04-25T01:34:36.451Z,94476.00
2023-04-25T01:35:36.434Z,94474.00
2023-04-25T01:36:36.473Z,94474.00
2023-04-25T01:37:36.469Z,94474.00
2023-04-25T01:38:36.499Z,94474.00
2023-04-25T01:39:36.533Z,94474.00
2023-04-25T01:40:36.534Z,94470.00
2023-04-25T01:41:36.524Z,94470.00
2023-04-25T01:42:36.562Z,94468.00
2023-04-25T01:43:36.569Z,94472.00
2023-04-25T01:44:36.566Z,94470.00
2023-04-25T01:45:36.589Z,94470.00
2023-04-25T01:46:36.662Z,94470.00
2023-04-25T01:47:36.669Z,94468.00
2023-04-25T01:48:36.675Z,94466.00
2023-04-25T01:49:36.648Z,94464.00
2023-04-25T01:50:36.689Z,94464.00
2023-04-25T01:51:36.665Z,94464.00
2023-04-25T01:52:36.694Z,94464.00
2023-04-25T01:53:36.696Z,94466.00
2023-04-25T01:54:36.697Z,94464.00
2023-04-25T01:55:36.724Z,94462.00
2023-04-25T01:56:36.709Z,94460.00
2023-04-25T01:57:36.771Z,94460.00
2023-04-25T01:58:36.768Z,94460.00
2023-04-25T01:59:36.770Z,94464.00
2023-04-25T02:00:36.757Z,94464.00
2023-04-25T02:01:36.864Z,94464.00
2023-04-25T02:02:36.935Z,94466.00
2023-04-25T02:03:36.922Z,94466.00
2023-04-25T02:04:36.987Z,94466.00
2023-04-25T02:05:36.861Z,94464.00
2023-04-25T02:06:36.907Z,94466.00
2023-04-25T02:07:36.904Z,94466.00
2023-04-25T02:08:36.898Z,94468.00
2023-04-25T02:09:36.931Z,94470.00
2023-04-25T02:10:36.963Z,94468.00
2023-04-25T02:11:36.965Z,94470.00
2023-04-25T02:12:36.982Z,94468.00
2023-04-25T02:13:36.970Z,94470.00
2023-04-25T02:14:37.033Z,94470.00
2023-04-25T02:15:37.035Z,94468.00
2023-04-25T02:16:37.205Z,94466.00
2023-04-25T02:17:37.143Z,94466.00
2023-04-25T02:18:37.095Z,94468.00
2023-04-25T02:19:37.118Z,94468.00
2023-04-25T02:20:37.128Z,94468.00
2023-04-25T02:21:37.147Z,94468.00
2023-04-25T02:22:37.143Z,94468.00
2023-04-25T02:23:37.204Z,94468.00
2023-04-25T02:24:37.174Z,94468.00
2023-04-25T02:25:37.226Z,94466.00
2023-04-25T02:26:37.241Z,94468.00
2023-04-25T02:27:37.253Z,94468.00
2023-04-25T02:28:37.256Z,94468.00
2023-04-25T02:29:37.272Z,94466.00
2023-04-25T02:30:37.291Z,94466.00
2023-04-25T02:31:37.411Z,94466.00
2023-04-25T02:32:37.397Z,94464.00
2023-04-25T02:33:37.346Z,94464.00
2023-04-25T02:34:37.376Z,94466.00
2023-04-25T02:35:37.357Z,94466.00
2023-04-25T02:36:37.408Z,94466.00
2023-04-25T02:37:37.422Z,94468.00
2023-04-25T02:38:37.435Z,94470.00
2023-04-25T02:39:37.548Z,94472.00
2023-04-25T02:40:37.499Z,94466.00
2023-04-25T02:41:37.503Z,94468.00
2023-04-25T02:42:37.515Z,94470.00
2023-04-25T02:43:37.565Z,94470.00
2023-04-25T02:44:37.547Z,94470.00
2023-04-25T02:45:37.576Z,94470.00
2023-04-25T02:46:39.410Z,94470.00
2023-04-25T02:47:37.678Z,94466.00
2023-04-25T02:48:37.636Z,94468.00
2023-04-25T02:49:37.676Z,94472.00
2023-04-25T02:50:37.658Z,94468.00
2023-04-25T02:51:37.711Z,94472.00
2023-04-25T02:52:37.750Z,94470.00
2023-04-25T02:53:37.745Z,94468.00
2023-04-25T02:54:37.763Z,94468.00
2023-04-25T02:55:37.796Z,94472.00
2023-04-25T02:56:37.818Z,94474.00
2023-04-25T02:57:37.831Z,94472.00
2023-04-25T02:58:37.842Z,94472.00
2023-04-25T02:59:37.877Z,94474.00
2023-04-25T03:00:38.600Z,94472.00
2023-04-25T03:01:37.918Z,94474.00
2023-04-25T03:02:38.052Z,94472.00
2023-04-25T03:03:38.035Z,94470.00
2023-04-25T03:04:38.061Z,94468.00
2023-04-25T03:05:38.043Z,94468.00
2023-04-25T03:06:38.023Z,94470.00
2023-04-25T03:07:38.066Z,94470.00
2023-04-25T03:08:38.098Z,94468.00
2023-04-25T03:09:38.113Z,94466.00
2023-04-25T03:10:38.109Z,94466.00
2023-04-25T03:11:38.135Z,94470.00
2023-04-25T03:12:38.176Z,94468.00
2023-04-25T03:13:38.201Z,94470.00
2023-04-25T03:14:38.201Z,94470.00
2023-04-25T03:15:38.257Z,94470.00
2023-04-25T03:16:38.318Z,94470.00
2023-04-25T03:17:38.301Z,94466.00
2023-04-25T03:18:38.306Z,94466.00
2023-04-25T03:19:38.323Z,94462.00
2023-04-25T03:20:38.324Z,94464.00
2023-04-25T03:21:38.370Z,94462.00
2023-04-25T03:22:38.391Z,94460.00
2023-04-25T03:23:38.385Z,94458.00
2023-04-25T03:24:38.368Z,94460.00
2023-04-25T03:25:38.383Z,94462.00
2023-04-25T03:26:38.395Z,94462.00
2023-04-25T03:27:38.396Z,94458.00
2023-04-25T03:28:38.377Z,94462.00
2023-04-25T03:29:38.432Z,94462.00
2023-04-25T03:30:38.365Z,94462.00
2023-04-25T03:31:38.420Z,94464.00
2023-04-25T03:32:38.419Z,94462.00
2023-04-25T03:33:38.359Z,94464.00
2023-04-25T03:34:38.419Z,94462.00
2023-04-25T03:35:38.383Z,94462.00
2023-04-25T03:36:40.991Z,94456.00
2023-04-25T03:37:38.390Z,94456.00
2023-04-25T03:38:38.397Z,94458.00
2023-04-25T03:39:38.381Z,94456.00
2023-04-25T03:40:38.383Z,94458.00
2023-04-25T03:41:38.369Z,94458.00
2023-04-25T03:42:38.347Z,94460.00
2023-04-25T03:43:38.365Z,94464.00
2023-04-25T03:44:38.351Z,94462.00
2023-04-25T03:45:38.403Z,94460.00
2023-04-25T03:46:38.354Z,94456.00
2023-04-25T03:47:38.335Z,94456.00
2023-04-25T03:48:38.306Z,94452.00
2023-04-25T03:49:38.314Z,94450.00
2023-04-25T03:50:38.273Z,94450.00
2023-04-25T03:51:38.299Z,94448.00
2023-04-25T03:52:38.276Z,94450.00
2023-04-25T03:53:38.271Z,94452.00
2023-04-25T03:54:38.284Z,94452.00
2023-04-25T03:55:38.268Z,94454.00
2023-04-25T03:56:38.249Z,94454.00
2023-04-25T03:57:38.258Z,94452.00
2023-04-25T03:58:38.278Z,94452.00
2023-04-25T03:59:38.237Z,94454.00
2023-04-25T04:00:38.246Z,94452.00
2023-04-25T04:01:38.214Z,94454.00
2023-04-25T04:02:38.454Z,94452.00
2023-04-25T04:03:38.555Z,94452.00
2023-04-25T04:04:38.437Z,94454.00
2023-04-25T04:05:38.282Z,94454.00
2023-04-25T04:06:38.209Z,94452.00
2023-04-25T04:07:38.178Z,94452.00
2023-04-25T04:08:38.213Z,94450.00
2023-04-25T04:09:38.173Z,94450.00
2023-04-25T04:10:38.169Z,94446.00
2023-04-25T04:11:38.166Z,94446.00
2023-04-25T04:12:38.140Z,94448.00
2023-04-25T04:13:38.135Z,94448.00
2023-04-25T04:14:38.140Z,94446.00
2023-04-25T04:15:38.170Z,94450.00
2023-04-25T04:16:38.231Z,94450.00
2023-04-25T04:17:38.236Z,94452.00
2023-04-25T04:18:38.189Z,94452.00
2023-04-25T04:19:38.266Z,94448.00
2023-04-25T04:20:38.252Z,94448.00
2023-04-25T04:21:38.304Z,94452.00
2023-04-25T04:22:38.328Z,94452.00
2023-04-25T04:23:39.767Z,94452.00
2023-04-25T04:24:38.370Z,94454.00
2023-04-25T04:25:38.408Z,94456.00
2023-04-25T04:26:38.451Z,94454.00
2023-04-25T04:27:38.448Z,94458.00
2023-04-25T04:28:38.509Z,94456.00
2023-04-25T04:29:38.529Z,94456.00
2023-04-25T04:30:38.565Z,94454.00
2023-04-25T04:31:38.617Z,94452.00
2023-04-25T04:32:38.667Z,94452.00
2023-04-25T04:33:38.656Z,94450.00
2023-04-25T04:34:38.685Z,94450.00
2023-04-25T04:35:38.704Z,94450.00
2023-04-25T04:36:38.728Z,94446.00
2023-04-25T04:37:38.763Z,94444.00
2023-04-25T04:38:41.346Z,94448.00
2023-04-25T04:39:38.796Z,94450.00
2023-04-25T04:40:38.794Z,94446.00
2023-04-25T04:41:38.805Z,94450.00
2023-04-25T04:42:38.791Z,94452.00
2023-04-25T04:43:38.789Z,94452.00
2023-04-25T04:44:38.763Z,94452.00
2023-04-25T04:45:38.756Z,94452.00
2023-04-25T04:46:39.023Z,94454.00
2023-04-25T04:47:38.791Z,94454.00
2023-04-25T04:48:38.741Z,94450.00
2023-04-25T04:49:38.727Z,94450.00
2023-04-25T04:50:38.720Z,94454.00
2023-04-25T04:51:38.727Z,94448.00
2023-04-25T04:52:38.697Z,94448.00
2023-04-25T04:53:38.717Z,94448.00
2023-04-25T04:54:38.693Z,94446.00
2023-04-25T04:55:38.692Z,94444.00
2023-04-25T04:56:38.670Z,94444.00
2023-04-25T04:57:38.654Z,94442.00
2023-04-25T04:58:38.681Z,94442.00
2023-04-25T04:59:38.648Z,94438.00
2023-04-25T05:00:45.712Z,94446.00
2023-04-25T05:01:38.684Z,94444.00
2023-04-25T05:02:38.717Z,94444.00
2023-04-25T05:03:38.806Z,94444.00
2023-04-25T05:04:38.685Z,94444.00
2023-04-25T05:05:38.594Z,94444.00
2023-04-25T05:06:38.604Z,94446.00
2023-04-25T05:07:38.602Z,94442.00
2023-04-25T05:08:38.592Z,94444.00
2023-04-25T05:09:38.669Z,94444.00
2023-04-25T05:10:38.628Z,94440.00
2023-04-25T05:11:38.600Z,94442.00
2023-04-25T05:12:38.576Z,94440.00
2023-04-25T05:13:38.591Z,94440.00
2023-04-25T05:14:38.565Z,94435.00
2023-04-25T05:15:38.596Z,94435.00
2023-04-25T05:16:38.618Z,94435.00
2023-04-25T05:17:38.638Z,94435.00
2023-04-25T05:18:38.547Z,94433.00
2023-04-25T05:19:38.570Z,94436.00
2023-04-25T05:20:38.552Z,94435.00
2023-04-25T05:21:38.538Z,94438.00
2023-04-25T05:22:38.527Z,94438.00
2023-04-25T05:23:38.550Z,94442.00
2023-04-25T05:24:38.489Z,94442.00
2023-04-25T05:25:38.492Z,94444.00
2023-04-25T05:26:38.496Z,94444.00
2023-04-25T05:27:38.501Z,94442.00
2023-04-25T05:28:38.496Z,94438.00
2023-04-25T05:29:38.463Z,94438.00
2023-04-25T05:30:38.651Z,94436.00
2023-04-25T05:31:38.495Z,94436.00
2023-04-25T05:32:38.460Z,94436.00
2023-04-25T05:33:38.464Z,94438.00
2023-04-25T05:34:38.492Z,94435.00
2023-04-25T05:35:38.644Z,94433.00
2023-04-25T05:36:38.598Z,94431.00
2023-04-25T05:37:38.652Z,94429.00
2023-04-25T05:38:38.668Z,94427.00
2023-04-25T05:39:38.708Z,94429.00
2023-04-25T05:40:39.188Z,94427.00
2023-04-25T05:41:38.850Z,94427.00
2023-04-25T05:42:38.906Z,94429.00
2023-04-25T05:43:38.951Z,94427.00
2023-04-25T05:44:39.007Z,94429.00
2023-04-25T05:46:58.137Z,94431.00
2023-04-25T05:47:57.946Z,94431.00
2023-04-25T05:48:57.938Z,94425.00
2023-04-25T05:49:58.154Z,94423.00
2023-04-25T05:50:57.903Z,94427.00
2023-04-25T05:51:57.912Z,94421.00
2023-04-25T05:52:57.909Z,94427.00
2023-04-25T05:53:57.922Z,94427.00
2023-04-25T05:54:57.909Z,94427.00
2023-04-25T05:55:57.887Z,94427.00
2023-04-25T05:56:57.889Z,94427.00
2023-04-25T05:57:57.902Z,94421.00
2023-04-25T05:58:57.868Z,94411.00
2023-04-25T05:59:57.892Z,94405.00
2023-04-25T06:00:57.885Z,94397.00
2023-04-25T06:01:57.904Z,94393.00
2023-04-25T06:02:57.920Z,94391.00
2023-04-25T06:03:58.118Z,94386.00
2023-04-25T06:04:58.018Z,94388.00
2023-04-25T06:05:58.250Z,94391.00
2023-04-25T06:06:57.839Z,94395.00
2023-04-25T06:07:57.809Z,94395.00
2023-04-25T06:08:57.800Z,94399.00
2023-04-25T06:09:57.790Z,94397.00
2023-04-25T06:10:58.113Z,94397.00
2023-04-25T06:11:57.783Z,94395.00
2023-04-25T06:12:57.755Z,94395.00
2023-04-25T06:13:57.808Z,94393.00
2023-04-25T06:14:57.754Z,94393.00
2023-04-25T06:15:57.824Z,94391.00
2023-04-25T06:16:57.785Z,94391.00
2023-04-25T06:17:57.744Z,94393.00
2023-04-25T06:18:57.789Z,94391.00
2023-04-25T06:19:57.749Z,94389.00
2023-04-25T06:20:57.713Z,94391.00
2023-04-25T06:21:57.775Z,94389.00
2023-04-25T06:22:57.688Z,94388.00
2023-04-25T06:23:57.701Z,94389.00
2023-04-25T06:24:57.713Z,94393.00
2023-04-25T06:25:57.777Z,94391.00
2023-04-25T06:26:57.842Z,94388.00
2023-04-25T06:27:57.898Z,94386.00
2023-04-25T06:28:57.975Z,94388.00
2023-04-25T06:29:57.970Z,94384.00
2023-04-25T06:30:58.025Z,94382.00
2023-04-25T06:31:57.997Z,94374.00
2023-04-25T06:32:58.093Z,94370.00
2023-04-25T06:33:57.996Z,94370.00
2023-04-25T06:34:58.104Z,94368.00
2023-04-25T06:35:58.195Z,94368.00
2023-04-25T06:36:58.185Z,94368.00
2023-04-25T06:37:58.205Z,94372.00
2023-04-25T06:38:58.250Z,94372.00
2023-04-25T06:39:58.241Z,94370.00
2023-04-25T06:40:58.683Z,94372.00
2023-04-25T06:41:58.222Z,94372.00
2023-04-25T06:42:58.250Z,94384.00
2023-04-25T06:43:58.234Z,94382.00
2023-04-25T06:44:58.288Z,94374.00
2023-04-25T06:45:58.666Z,94382.00
2023-04-25T06:46:58.622Z,94382.00
2023-04-25T06:47:58.632Z,94374.00
2023-04-25T06:48:58.512Z,94370.00
2023-04-25T06:49:58.776Z,94370.00
2023-04-25T06:50:58.796Z,94370.00
2023-04-25T06:51:58.628Z,94370.00
2023-04-25T06:52:58.611Z,94370.00
2023-04-25T06:53:58.582Z,94370.00
2023-04-25T06:54:58.629Z,94368.00
2023-04-25T06:55:58.625Z,94364.00
2023-04-25T06:56:58.637Z,94360.00
2023-04-25T06:57:58.642Z,94364.00
2023-04-25T06:58:58.688Z,94360.00
2023-04-25T06:59:59.685Z,94360.00
2023-04-25T07:00:58.761Z,94360.00
2023-04-25T07:01:58.749Z,94358.00
2023-04-25T07:02:58.817Z,94352.00
2023-04-25T07:03:58.978Z,94350.00
2023-04-25T07:04:58.839Z,94348.00
2023-04-25T07:05:59.188Z,94348.00
2023-04-25T07:06:58.849Z,94348.00
2023-04-25T07:07:58.886Z,94346.00
2023-04-25T07:08:58.945Z,94348.00
2023-04-25T07:09:58.966Z,94350.00
2023-04-25T07:10:59.235Z,94350.00
2023-04-25T07:11:59.096Z,94352.00
2023-04-25T07:12:59.125Z,94348.00
2023-04-25T07:13:59.183Z,94350.00
2023-04-25T07:14:59.315Z,94350.00
2023-04-25T07:15:59.663Z,94350.00
2023-04-25T07:16:59.374Z,94348.00
2023-04-25T07:17:59.370Z,94350.00
2023-04-25T07:18:59.382Z,94350.00
2023-04-25T07:19:59.435Z,94356.00
2023-04-25T07:20:59.723Z,94356.00
2023-04-25T07:21:59.510Z,94352.00
2023-04-25T07:22:59.542Z,94356.00
2023-04-25T07:23:59.547Z,94360.00
2023-04-25T07:24:59.620Z,94358.00
2023-04-25T07:25:59.652Z,94356.00
2023-04-25T07:26:59.657Z,94352.00
2023-04-25T07:27:59.751Z,94354.00
2023-04-25T07:28:59.760Z,94352.00
2023-04-25T07:29:59.759Z,94350.00
2023-04-25T07:31:00.627Z,94350.00
2023-04-25T07:31:59.893Z,94352.00
2023-04-25T07:32:59.916Z,94356.00
2023-04-25T07:34:01.871Z,94352.00
2023-04-25T07:35:00.006Z,94356.00
2023-04-25T07:36:00.005Z,94354.00
2023-04-25T07:37:00.299Z,94354.00
2023-04-25T07:38:00.675Z,94354.00
2023-04-25T07:39:00.166Z,94356.00
2023-04-25T07:40:00.200Z,94358.00
2023-04-25T07:41:00.292Z,94360.00
2023-04-25T07:42:00.715Z,94360.00
2023-04-25T07:43:00.357Z,94360.00
2023-04-25T07:44:00.340Z,94358.00
2023-04-25T07:45:00.340Z,94358.00
2023-04-25T07:46:00.400Z,94354.00
2023-04-25T07:47:02.482Z,94356.00
2023-04-25T07:48:00.390Z,94350.00
2023-04-25T07:49:00.324Z,94352.00
2023-04-25T07:50:00.338Z,94350.00
2023-04-25T07:51:00.318Z,94352.00
2023-04-25T07:52:00.568Z,94356.00
2023-04-25T07:53:00.301Z,94354.00
2023-04-25T07:54:00.329Z,94356.00
2023-04-25T07:55:00.299Z,94356.00
2023-04-25T07:56:00.305Z,94354.00
2023-04-25T07:57:00.682Z,94352.00
2023-04-25T07:58:00.282Z,94354.00
2023-04-25T07:59:00.276Z,94354.00
2023-04-25T08:00:00.257Z,94348.00
2023-04-25T08:01:00.241Z,94352.00
2023-04-25T08:02:00.394Z,94350.00
2023-04-25T08:03:00.394Z,94350.00
2023-04-25T08:04:00.521Z,94350.00
2023-04-25T08:05:00.385Z,94350.00
2023-04-25T08:06:00.570Z,94350.00
2023-04-25T08:07:00.414Z,94350.00
2023-04-25T08:08:00.180Z,94356.00
2023-04-25T08:09:00.176Z,94354.00
2023-04-25T08:10:00.262Z,94354.00
2023-04-25T08:11:00.216Z,94354.00
2023-04-25T08:12:00.325Z,94356.00
2023-04-25T08:13:00.189Z,94356.00
2023-04-25T08:14:00.171Z,94354.00
2023-04-25T08:15:00.217Z,94354.00
2023-04-25T08:16:00.245Z,94356.00
2023-04-25T08:17:00.243Z,94356.00
2023-04-25T08:18:00.235Z,94358.00
2023-04-25T08:19:00.178Z,94356.00
2023-04-25T08:20:00.182Z,94358.00
2023-04-25T08:21:00.149Z,94360.00
2023-04-25T08:22:00.287Z,94360.00
2023-04-25T08:23:00.141Z,94360.00
2023-04-25T08:24:00.146Z,94360.00
2023-04-25T08:25:00.102Z,94360.00
2023-04-25T08:26:00.078Z,94358.00
2023-04-25T08:27:00.188Z,94364.00
2023-04-25T08:28:00.088Z,94360.00
2023-04-25T08:29:00.068Z,94360.00
2023-04-25T08:30:00.086Z,94356.00
2023-04-25T08:31:00.167Z,94350.00
2023-04-25T08:32:00.220Z,94350.00
2023-04-25T08:33:00.231Z,94354.00
2023-04-25T08:34:00.206Z,94356.00
2023-04-25T08:35:00.216Z,94348.00
2023-04-25T08:36:00.239Z,94344.00
2023-04-25T08:37:00.716Z,94344.00
2023-04-25T08:38:00.301Z,94339.00
2023-04-25T08:39:00.328Z,94344.00
2023-04-25T08:40:00.366Z,94344.00
2023-04-25T08:41:00.359Z,94346.00
2023-04-25T08:42:00.444Z,94341.00
2023-04-25T08:43:00.454Z,94346.00
2023-04-25T08:44:00.478Z,94346.00
2023-04-25T08:45:00.494Z,94344.00
2023-04-25T08:46:00.473Z,94346.00
2023-04-25T08:47:00.723Z,94350.00
2023-04-25T08:48:00.517Z,94348.00
2023-04-25T08:49:00.485Z,94346.00
2023-04-25T08:50:00.546Z,94346.00
2023-04-25T08:51:00.589Z,94344.00
2023-04-25T08:52:00.694Z,94348.00
2023-04-25T08:53:00.657Z,94344.00
2023-04-25T08:54:06.811Z,94343.00
2023-04-25T08:55:01.724Z,94344.00
2023-04-25T08:56:00.755Z,94343.00
2023-04-25T08:57:00.850Z,94343.00
2023-04-25T08:58:00.698Z,94341.00
2023-04-25T08:59:00.708Z,94343.00
2023-04-25T09:00:00.680Z,94344.00
2023-04-25T09:01:00.737Z,94344.00
2023-04-25T09:02:00.754Z,94343.00
2023-04-25T09:03:00.766Z,94339.00
2023-04-25T09:04:00.790Z,94341.00
2023-04-25T09:05:00.643Z,94341.00
2023-04-25T09:06:00.648Z,94339.00
2023-04-25T09:07:00.701Z,94341.00
2023-04-25T09:08:00.692Z,94341.00
2023-04-25T09:09:00.712Z,94341.00
2023-04-25T09:10:00.744Z,94341.00
2023-04-25T09:11:00.801Z,94337.00
2023-04-25T09:12:00.788Z,94341.00
2023-04-25T09:13:00.811Z,94339.00
2023-04-25T09:14:00.839Z,94335.00
2023-04-25T09:15:00.818Z,94339.00
2023-04-25T09:16:00.865Z,94341.00
2023-04-25T09:17:01.286Z,94337.00
2023-04-25T09:18:00.816Z,94343.00
2023-04-25T09:19:00.802Z,94339.00
2023-04-25T09:20:00.795Z,94341.00
2023-04-25T09:21:03.013Z,94339.00
2023-04-25T09:22:00.816Z,94339.00
2023-04-25T09:23:00.831Z,94343.00
2023-04-25T09:24:00.805Z,94339.00
2023-04-25T09:25:00.841Z,94341.00
2023-04-25T09:26:00.804Z,94339.00
2023-04-25T09:27:01.261Z,94337.00
2023-04-25T09:28:00.779Z,94337.00
2023-04-25T09:29:00.756Z,94341.00
2023-04-25T09:30:00.770Z,94343.00
2023-04-25T09:31:00.772Z,94348.00
2023-04-25T09:32:00.812Z,94348.00
2023-04-25T09:33:01.211Z,94348.00
2023-04-25T09:34:01.112Z,94350.00
2023-04-25T09:35:00.729Z,94350.00
2023-04-25T09:36:00.834Z,94350.00
2023-04-25T09:37:00.948Z,94350.00
2023-04-25T09:38:01.260Z,94348.00
2023-04-25T09:39:01.043Z,94346.00
2023-04-25T09:40:01.002Z,94344.00
2023-04-25T09:41:01.042Z,94344.00
2023-04-25T09:42:01.132Z,94348.00
2023-04-25T09:43:01.271Z,94346.00
2023-04-25T09:44:01.628Z,94344.00
2023-04-25T09:45:01.324Z,94344.00
2023-04-25T09:46:01.377Z,94346.00
2023-04-25T09:47:01.339Z,94346.00
2023-04-25T09:48:01.818Z,94346.00
2023-04-25T09:49:01.338Z,94344.00
2023-04-25T09:50:01.387Z,94346.00
2023-04-25T09:51:01.433Z,94346.00
2023-04-25T09:52:01.477Z,94344.00
2023-04-25T09:53:01.483Z,94346.00
2023-04-25T09:54:01.561Z,94346.00
2023-04-25T09:55:01.566Z,94346.00
2023-04-25T09:56:01.595Z,94348.00
2023-04-25T09:57:01.670Z,94350.00
2023-04-25T09:58:01.788Z,94348.00
2023-04-25T09:59:01.738Z,94350.00
2023-04-25T10:00:01.809Z,94352.00
2023-04-25T10:01:01.890Z,94352.00
2023-04-25T10:02:01.921Z,94352.00
2023-04-25T10:03:02.032Z,94352.00
2023-04-25T10:04:02.515Z,94354.00
2023-04-25T10:05:02.074Z,94352.00
2023-04-25T10:06:02.127Z,94352.00
2023-04-25T10:07:02.166Z,94350.00
2023-04-25T10:08:02.191Z,94348.00
2023-04-25T10:09:02.335Z,94346.00
2023-04-25T10:10:02.201Z,94346.00
2023-04-25T10:11:02.221Z,94346.00
2023-04-25T10:12:02.313Z,94348.00
2023-04-25T10:13:02.244Z,94348.00
2023-04-25T10:14:02.319Z,94344.00
2023-04-25T10:15:02.391Z,94348.00
2023-04-25T10:16:02.470Z,94346.00
2023-04-25T10:17:02.433Z,94343.00
2023-04-25T10:18:02.476Z,94346.00
2023-04-25T10:19:02.476Z,94344.00
2023-04-25T10:20:02.563Z,94341.00
2023-04-25T10:21:02.508Z,94341.00
2023-04-25T10:22:02.547Z,94339.00
2023-04-25T10:23:03.290Z,94335.00
2023-04-25T10:24:02.535Z,94335.00
2023-04-25T10:25:02.831Z,94335.00
2023-04-25T10:26:02.533Z,94339.00
2023-04-25T10:27:02.548Z,94337.00
2023-04-25T10:28:02.573Z,94333.00
2023-04-25T10:29:02.649Z,94329.00
2023-04-25T10:30:02.730Z,94325.00
2023-04-25T10:31:02.847Z,94323.00
2023-04-25T10:32:02.929Z,94321.00
2023-04-25T10:33:02.989Z,94319.00
2023-04-25T10:34:02.995Z,94317.00
2023-04-25T10:35:02.986Z,94319.00
2023-04-25T10:36:03.064Z,94317.00
2023-04-25T10:37:03.139Z,94319.00
2023-04-25T10:38:03.448Z,94313.00
2023-04-25T10:39:03.197Z,94311.00
2023-04-25T10:40:03.252Z,94311.00
2023-04-25T10:41:03.313Z,94309.00
2023-04-25T10:42:03.351Z,94309.00
2023-04-25T10:43:03.781Z,94307.00
2023-04-25T10:44:03.428Z,94311.00
2023-04-25T10:45:03.505Z,94313.00
2023-04-25T10:46:03.496Z,94311.00
2023-04-25T10:47:03.927Z,94309.00
2023-04-25T10:48:03.834Z,94309.00
2023-04-25T10:49:03.563Z,94311.00
2023-04-25T10:50:03.564Z,94315.00
2023-04-25T10:51:03.587Z,94313.00
2023-04-25T10:52:03.591Z,94315.00
2023-04-25T10:53:03.813Z,94313.00
2023-04-25T10:54:03.612Z,94319.00
2023-04-25T10:55:03.632Z,94321.00
2023-04-25T10:56:03.653Z,94321.00
2023-04-25T10:57:03.831Z,94321.00
2023-04-25T10:58:04.283Z,94321.00
2023-04-25T10:59:03.848Z,94329.00
2023-04-25T11:00:03.923Z,94327.00
2023-04-25T11:01:03.944Z,94329.00
2023-04-25T11:02:04.132Z,94329.00
2023-04-25T11:03:04.393Z,94327.00
2023-04-25T11:04:04.336Z,94323.00
2023-04-25T11:05:04.138Z,94321.00
2023-04-25T11:06:04.334Z,94319.00
2023-04-25T11:07:06.991Z,94317.00
2023-04-25T11:08:08.271Z,94313.00
2023-04-25T11:09:04.271Z,94311.00
2023-04-25T11:10:04.228Z,94313.00
2023-04-25T11:11:04.191Z,94309.00
2023-04-25T11:12:04.196Z,94309.00
2023-04-25T11:13:04.210Z,94309.00
2023-04-25T11:14:04.254Z,94309.00
2023-04-25T11:15:04.273Z,94313.00
2023-04-25T11:16:12.663Z,94315.00
2023-04-25T11:17:05.229Z,94309.00
2023-04-25T11:18:04.254Z,94311.00
2023-04-25T11:19:05.186Z,94311.00
2023-04-25T11:20:04.122Z,94309.00
2023-04-25T11:21:04.144Z,94311.00
2023-04-25T11:22:04.118Z,94311.00
2023-04-25T11:24:04.232Z,94311.00
2023-04-25T11:25:04.182Z,94309.00
2023-04-25T11:26:04.087Z,94309.00
2023-04-25T11:27:04.133Z,94307.00
2023-04-25T11:28:04.108Z,94311.00
2023-04-25T11:29:04.386Z,94313.00
2023-04-25T11:30:04.115Z,94313.00
2023-04-25T11:31:04.074Z,94315.00
2023-04-25T11:32:04.162Z,94319.00
2023-04-25T11:33:04.149Z,94325.00
2023-04-25T11:34:04.299Z,94327.00
2023-04-25T11:35:04.042Z,94333.00
2023-04-25T11:36:04.017Z,94337.00
2023-04-25T11:37:04.012Z,94339.00
2023-04-25T11:38:04.113Z,94337.00
2023-04-25T11:39:04.318Z,94339.00
2023-04-25T11:40:04.013Z,94343.00
2023-04-25T11:41:03.976Z,94344.00
2023-04-25T11:42:08.067Z,94348.00
2023-04-25T11:43:04.989Z,94352.00
2023-04-25T11:44:03.994Z,94358.00
2023-04-25T11:45:03.995Z,94360.00
2023-04-25T11:46:04.026Z,94366.00
2023-04-25T11:47:04.251Z,94366.00